Time;durP1;ratioP1;P1;durP2;ratioP2;P2;SDS_P1;SDS_P2;PMS_P1;PMS_P2;Temp;Humidity;BMP_temperature;BMP_pressure;BME280_temperature;BME280_humidity;BME280_pressure;Samples;Min_cycle;Max_cycle;Signal;HPM_P1;HPM_P2
2021/05/04 00:01:31;;;;;;;5.32;3.63;;;6.40;61.80;;;;;;5053185;28;20025;-80
2021/05/04 00:03:57;;;;;;;4.55;3.20;;;6.40;61.70;;;;;;5051631;28;20082;-81
2021/05/04 00:06:22;;;;;;;6.82;3.55;;;6.40;62.50;;;;;;5051326;28;20389;-83
2021/05/04 00:08:48;;;;;;;4.47;3.00;;;6.40;61.60;;;;;;5050696;28;20068;-83
2021/05/04 00:11:14;;;;;;;4.22;2.90;;;6.30;61.80;;;;;;5051758;28;20485;-81
2021/05/04 00:13:39;;;;;;;8.15;3.58;;;6.30;62.10;;;;;;5051428;28;20025;-80
2021/05/04 00:16:05;;;;;;;4.80;3.40;;;6.20;62.40;;;;;;5051423;28;20055;-79
2021/05/04 00:18:31;;;;;;;6.32;3.47;;;6.20;62.60;;;;;;5051365;28;20025;-79
2021/05/04 00:20:56;;;;;;;4.10;3.22;;;6.20;62.80;;;;;;5052592;28;20110;-79
2021/05/04 00:23:22;;;;;;;6.22;3.70;;;6.10;63.00;;;;;;5051078;28;20037;-80
2021/05/04 00:25:48;;;;;;;6.28;3.53;;;6.10;63.10;;;;;;5051585;28;20501;-81
2021/05/04 00:28:14;;;;;;;4.53;3.70;;;6.00;63.30;;;;;;5051240;28;20036;-80
2021/05/04 00:30:39;;;;;;;5.28;3.22;;;5.90;63.50;;;;;;5051593;28;20461;-78
2021/05/04 00:33:05;;;;;;;3.78;3.15;;;6.00;63.70;;;;;;5051354;28;20029;-78
2021/05/04 00:35:31;;;;;;;4.65;3.63;;;6.00;63.80;;;;;;5051469;28;20577;-80
2021/05/04 00:37:56;;;;;;;5.13;3.35;;;6.00;64.00;;;;;;5051489;28;20029;-80
2021/05/04 00:40:22;;;;;;;3.55;2.90;;;6.00;64.00;;;;;;5051031;28;20147;-78
2021/05/04 00:42:47;;;;;;;6.20;3.45;;;6.00;63.90;;;;;;5051481;28;20032;-79
2021/05/04 00:45:13;;;;;;;7.03;3.45;;;5.90;63.80;;;;;;5051274;28;20551;-78
2021/05/04 00:47:39;;;;;;;6.35;3.75;;;5.90;63.80;;;;;;5051230;28;20481;-79
2021/05/04 00:50:05;;;;;;;5.28;3.50;;;6.00;64.10;;;;;;5051114;28;20175;-79
2021/05/04 00:52:31;;;;;;;4.55;3.08;;;6.10;64.30;;;;;;5050847;28;20025;-79
2021/05/04 00:54:58;;;;;;;5.10;3.38;;;6.10;64.00;;;;;;5050825;28;20112;-80
2021/05/04 00:57:24;;;;;;;12.88;3.97;;;6.10;63.80;;;;;;5034830;28;20037;-77
2021/05/04 00:59:51;;;;;;;4.47;3.33;;;6.10;63.80;;;;;;5051197;28;20017;-79
2021/05/04 01:02:17;;;;;;;6.22;3.10;;;6.10;63.70;;;;;;5050973;28;20474;-79
2021/05/04 01:04:44;;;;;;;5.63;3.10;;;6.20;63.50;;;;;;5051028;28;20617;-80
2021/05/04 01:07:09;;;;;;;6.25;3.33;;;6.30;63.40;;;;;;5052088;28;20029;-79
2021/05/04 01:09:35;;;;;;;4.70;2.97;;;6.70;62.40;;;;;;5051244;28;20013;-78
2021/05/04 01:12:01;;;;;;;4.95;3.00;;;6.90;61.10;;;;;;5034440;28;20078;-78
2021/05/04 01:14:26;;;;;;;3.97;2.88;;;7.00;60.40;;;;;;5050994;28;20382;-79
2021/05/04 01:16:54;;;;;;;3.72;2.63;;;7.10;59.80;;;;;;5050964;28;20025;-79
2021/05/04 01:19:21;;;;;;;3.97;2.63;;;7.20;59.30;;;;;;5052776;28;20021;-81
2021/05/04 01:21:47;;;;;;;4.97;2.65;;;7.30;59.00;;;;;;5054611;28;20036;-80
2021/05/04 01:24:13;;;;;;;3.65;2.55;;;7.40;58.40;;;;;;5054678;28;20029;-80
2021/05/04 01:26:44;;;;;;;3.72;2.72;;;7.40;58.20;;;;;;5054328;28;20565;-79
2021/05/04 01:29:10;;;;;;;4.03;2.70;;;7.40;59.00;;;;;;5054489;28;20036;-78
2021/05/04 01:31:37;;;;;;;3.20;2.50;;;7.40;57.20;;;;;;5054600;28;20112;-79
2021/05/04 01:34:03;;;;;;;3.88;2.80;;;7.50;57.00;;;;;;5055627;28;20021;-78
2021/05/04 01:36:30;;;;;;;3.33;2.55;;;7.50;56.80;;;;;;5054174;28;20021;-79
2021/05/04 01:38:56;;;;;;;3.40;1.98;;;7.50;56.20;;;;;;5053945;28;20063;-78
2021/05/04 01:41:22;;;;;;;2.90;2.20;;;7.70;54.70;;;;;;5054211;28;20121;-78
2021/05/04 01:43:47;;;;;;;2.38;2.10;;;8.10;53.10;;;;;;5054405;28;20110;-78
2021/05/04 01:46:13;;;;;;;4.68;2.30;;;8.40;51.50;;;;;;5053899;28;20036;-79
2021/05/04 01:48:40;;;;;;;2.28;1.80;;;8.60;49.80;;;;;;5054222;28;20036;-81
2021/05/04 01:51:05;;;;;;;3.90;2.28;;;8.90;48.50;;;;;;5054065;28;20495;-80
2021/05/04 01:53:31;;;;;;;3.05;2.00;;;8.90;47.80;;;;;;5054086;28;20029;-81
2021/05/04 01:55:57;;;;;;;3.90;2.20;;;9.10;47.00;;;;;;5053777;28;20032;-78
2021/05/04 01:58:22;;;;;;;5.85;2.47;;;9.10;46.60;;;;;;5054109;28;20550;-79
2021/05/04 02:00:48;;;;;;;4.10;1.80;;;9.20;46.20;;;;;;5054122;28;20087;-80
2021/05/04 02:03:14;;;;;;;5.30;2.60;;;9.20;46.10;;;;;;5053781;28;20029;-80
2021/05/04 02:05:39;;;;;;;4.78;2.15;;;9.30;45.60;;;;;;5054013;28;20028;-81
2021/05/04 02:08:06;;;;;;;2.40;1.98;;;9.40;45.10;;;;;;5053545;28;20028;-82
2021/05/04 02:10:31;;;;;;;4.03;2.47;;;9.40;45.00;;;;;;5054780;28;20025;-81
2021/05/04 02:12:57;;;;;;;3.28;2.03;;;9.40;45.20;;;;;;5053166;28;20108;-82
2021/05/04 02:15:22;;;;;;;2.20;1.58;;;9.40;45.20;;;;;;5053843;28;20017;-82
2021/05/04 02:17:48;;;;;;;5.35;2.05;;;9.40;44.90;;;;;;5053581;28;20021;-82
2021/05/04 02:20:14;;;;;;;4.43;2.15;;;9.50;44.70;;;;;;5053633;28;20021;-82
2021/05/04 02:22:39;;;;;;;4.10;1.95;;;9.50;44.70;;;;;;5053510;28;20036;-84
2021/05/04 02:25:06;;;;;;;5.45;2.28;;;9.60;44.70;;;;;;5053323;28;20021;-82
2021/05/04 02:27:33;;;;;;;4.10;1.67;;;9.60;44.30;;;;;;5053205;28;20033;-82
2021/05/04 02:29:59;;;;;;;2.95;2.03;;;9.60;44.40;;;;;;5052780;28;20025;-83
2021/05/04 02:32:26;;;;;;;2.78;1.90;;;9.70;44.30;;;;;;5052909;28;20029;-83
2021/05/04 02:34:51;;;;;;;2.40;1.85;;;9.70;44.10;;;;;;5054835;28;20063;-82
2021/05/04 02:37:17;;;;;;;4.43;2.15;;;9.80;43.90;;;;;;5053340;28;20025;-85
2021/05/04 02:39:43;;;;;;;2.30;1.73;;;9.80;43.80;;;;;;5052984;28;20140;-83
2021/05/04 02:42:08;;;;;;;4.03;2.08;;;9.80;44.00;;;;;;5053042;28;20032;-83
2021/05/04 02:44:34;;;;;;;3.00;2.03;;;9.70;44.40;;;;;;5053282;28;20021;-81
2021/05/04 02:46:59;;;;;;;3.53;2.20;;;9.70;44.50;;;;;;5053067;28;20468;-83
2021/05/04 02:49:25;;;;;;;3.80;1.90;;;9.70;44.60;;;;;;5053657;28;20025;-81
2021/05/04 02:51:51;;;;;;;3.08;1.92;;;9.60;44.70;;;;;;5053404;28;20113;-81
2021/05/04 02:54:16;;;;;;;3.20;1.80;;;9.60;44.80;;;;;;5052569;28;20067;-82
2021/05/04 02:56:42;;;;;;;4.20;2.30;;;9.70;44.80;;;;;;5053032;28;20021;-83
2021/05/04 02:59:07;;;;;;;3.50;1.90;;;9.70;44.70;;;;;;5052561;28;20108;-79
2021/05/04 03:01:33;;;;;;;2.08;1.85;;;9.70;44.60;;;;;;5052817;28;20025;-79
2021/05/04 03:03:58;;;;;;;3.40;2.03;;;9.80;44.60;;;;;;5052666;28;20477;-79
2021/05/04 03:06:24;;;;;;;3.83;1.60;;;9.80;44.50;;;;;;5052249;28;20029;-82
2021/05/04 03:08:49;;;;;;;2.33;2.00;;;9.80;44.40;;;;;;5052400;28;20390;-79
2021/05/04 03:11:15;;;;;;;3.00;2.22;;;9.80;44.30;;;;;;5052377;28;20028;-82
2021/05/04 03:13:41;;;;;;;3.10;1.80;;;9.90;44.30;;;;;;5053754;28;20032;-84
2021/05/04 03:16:06;;;;;;;2.30;1.90;;;9.90;44.30;;;;;;5052093;28;20514;-78
2021/05/04 03:18:32;;;;;;;4.40;1.98;;;9.90;44.30;;;;;;5052630;28;20129;-78
2021/05/04 03:20:58;;;;;;;2.05;1.73;;;10.00;43.90;;;;;;5052167;28;20109;-80
2021/05/04 03:23:24;;;;;;;2.25;1.75;;;10.10;43.90;;;;;;5051987;28;20017;-79
2021/05/04 03:25:50;;;;;;;2.58;2.00;;;10.10;43.80;;;;;;5052237;28;20052;-79
2021/05/04 03:28:17;;;;;;;3.95;1.70;;;10.10;43.80;;;;;;5051965;28;20119;-80
2021/05/04 03:30:44;;;;;;;6.40;2.17;;;10.10;43.80;;;;;;5052174;28;20025;-79
2021/05/04 03:33:09;;;;;;;6.03;2.35;;;10.10;43.80;;;;;;5052269;28;20025;-81
2021/05/04 03:35:35;;;;;;;5.88;2.17;;;10.10;43.90;;;;;;5052256;28;20481;-81
2021/05/04 03:38:02;;;;;;;3.63;1.85;;;10.10;44.00;;;;;;5052128;28;20366;-81
2021/05/04 03:40:28;;;;;;;3.22;2.03;;;10.10;43.90;;;;;;5052053;28;20109;-82
2021/05/04 03:42:54;;;;;;;3.20;2.42;;;10.20;43.80;;;;;;5051563;28;20021;-80
2021/05/04 03:45:20;;;;;;;4.13;2.20;;;10.20;43.50;;;;;;5051935;28;20400;-81
2021/05/04 03:47:46;;;;;;;5.78;2.30;;;10.20;43.50;;;;;;5051360;28;20045;-79
2021/05/04 03:50:21;;;;;;;4.43;2.50;;;10.20;43.60;;;;;;5035216;28;20059;-83
2021/05/04 03:52:47;;;;;;;6.43;2.78;;;10.20;43.60;;;;;;5051741;28;20500;-83
2021/05/04 03:55:13;;;;;;;6.70;2.33;;;10.20;43.60;;;;;;5052940;28;20040;-83
2021/05/04 03:57:39;;;;;;;5.50;2.50;;;10.30;43.60;;;;;;5051443;28;20032;-81
2021/05/04 04:00:07;;;;;;;4.50;2.65;;;10.30;43.50;;;;;;5051435;28;20032;-82
2021/05/04 04:02:32;;;;;;;2.65;2.22;;;10.30;43.70;;;;;;5051716;28;20043;-84
2021/05/04 04:04:58;;;;;;;3.08;2.28;;;10.30;43.80;;;;;;5051550;28;20017;-81
2021/05/04 04:07:24;;;;;;;5.80;2.28;;;10.30;43.80;;;;;;5034983;28;20041;-82
2021/05/04 04:09:49;;;;;;;3.35;2.33;;;10.30;43.90;;;;;;5051227;28;20044;-82
2021/05/04 04:12:15;;;;;;;4.93;2.40;;;10.30;44.10;;;;;;5051310;28;20053;-81
2021/05/04 04:14:41;;;;;;;7.25;2.85;;;10.30;44.10;;;;;;5051435;28;20025;-83
2021/05/04 04:17:06;;;;;;;4.65;2.97;;;10.30;44.30;;;;;;5051176;28;20021;-83
2021/05/04 04:19:32;;;;;;;4.95;2.90;;;10.30;44.20;;;;;;5051245;28;20029;-83
2021/05/04 04:21:57;;;;;;;4.35;2.70;;;10.40;44.20;;;;;;5051142;28;20017;-82
2021/05/04 04:24:23;;;;;;;3.85;2.40;;;10.40;44.00;;;;;;5051188;28;20531;-82
2021/05/04 04:26:50;;;;;;;4.80;2.30;;;10.50;43.90;;;;;;5034708;28;20056;-81
2021/05/04 04:29:16;;;;;;;3.50;2.33;;;10.50;43.90;;;;;;5034775;28;20124;-83
2021/05/04 04:31:41;;;;;;;2.17;1.98;;;10.50;44.00;;;;;;5052631;28;20099;-80
2021/05/04 04:34:08;;;;;;;3.25;2.28;;;10.60;43.80;;;;;;5051282;28;20481;-82
2021/05/04 04:36:34;;;;;;;3.42;2.67;;;10.60;43.60;;;;;;5051481;28;20040;-82
2021/05/04 04:39:00;;;;;;;4.57;2.63;;;10.60;43.40;;;;;;5051201;28;20029;-81
2021/05/04 04:41:26;;;;;;;3.55;2.22;;;10.70;43.40;;;;;;5052619;28;20112;-81
2021/05/04 04:43:52;;;;;;;3.70;2.50;;;10.60;43.40;;;;;;5051302;28;20056;-80
2021/05/04 04:46:17;;;;;;;3.08;2.10;;;10.60;43.50;;;;;;5051066;28;20082;-82
2021/05/04 04:48:43;;;;;;;5.47;2.80;;;10.60;43.50;;;;;;5053388;28;20481;-83
2021/05/04 04:51:08;;;;;;;4.70;2.40;;;10.60;43.60;;;;;;5051635;28;20501;-82
2021/05/04 04:53:34;;;;;;;4.78;2.50;;;10.60;43.40;;;;;;5035512;28;20029;-82
2021/05/04 04:55:59;;;;;;;3.28;2.33;;;10.70;43.30;;;;;;5056437;28;20025;-82
2021/05/04 04:58:25;;;;;;;4.82;2.63;;;10.80;43.20;;;;;;5057439;28;20017;-82
2021/05/04 05:00:51;;;;;;;3.20;2.53;;;10.80;42.90;;;;;;5057016;28;20021;-81
2021/05/04 05:03:17;;;;;;;2.30;1.95;;;10.90;42.70;;;;;;5058328;28;20025;-84
2021/05/04 05:05:43;;;;;;;6.03;2.88;;;10.90;42.80;;;;;;5056290;28;20496;-80
2021/05/04 05:08:08;;;;;;;3.20;2.25;;;10.90;42.60;;;;;;5056501;28;20083;-83
2021/05/04 05:10:34;;;;;;;3.65;2.53;;;11.00;42.30;;;;;;5058762;28;20029;-81
2021/05/04 05:12:59;;;;;;;2.85;2.30;;;10.90;42.30;;;;;;5055165;28;20025;-82
2021/05/04 05:15:26;;;;;;;3.78;2.20;;;11.00;42.30;;;;;;5054802;28;20021;-82
2021/05/04 05:17:51;;;;;;;3.28;2.28;;;10.90;42.10;;;;;;5054628;28;20024;-79
2021/05/04 05:20:17;;;;;;;3.63;2.47;;;11.00;41.90;;;;;;5052693;28;20082;-79
2021/05/04 05:22:45;;;;;;;5.68;2.20;;;11.00;41.90;;;;;;5055068;28;20393;-80
2021/05/04 05:25:11;;;;;;;3.85;2.45;;;11.00;41.80;;;;;;5053696;28;20035;-82
2021/05/04 05:27:38;;;;;;;4.00;2.30;;;11.10;41.60;;;;;;5052540;28;20036;-80
2021/05/04 05:30:10;;;;;;;3.17;2.40;;;11.10;41.50;;;;;;5054254;28;20491;-82
2021/05/04 05:32:35;;;;;;;2.70;2.17;;;11.10;41.40;;;;;;5054326;28;20112;-81
2021/05/04 05:35:04;;;;;;;5.80;2.53;;;11.10;42.30;;;;;;5054244;28;20151;-81
2021/05/04 05:37:29;;;;;;;3.90;2.15;;;11.20;41.20;;;;;;5053888;28;20025;-81
2021/05/04 05:39:55;;;;;;;3.03;2.30;;;11.20;41.00;;;;;;5053972;28;20387;-82
2021/05/04 05:42:20;;;;;;;6.32;2.42;;;11.30;41.10;;;;;;5053868;28;20035;-81
2021/05/04 05:44:46;;;;;;;3.97;2.20;;;11.30;41.00;;;;;;5054076;28;20051;-82
2021/05/04 05:47:12;;;;;;;3.25;2.17;;;11.40;40.60;;;;;;5053638;28;20033;-82
2021/05/04 05:49:39;;;;;;;4.82;2.20;;;11.40;40.40;;;;;;5054156;28;20021;-82
2021/05/04 05:52:05;;;;;;;3.30;2.00;;;11.40;40.60;;;;;;5054019;28;20036;-82
2021/05/04 05:54:31;;;;;;;3.13;2.17;;;11.40;40.50;;;;;;5054000;28;20021;-82
2021/05/04 05:56:57;;;;;;;4.28;1.95;;;11.40;40.30;;;;;;5053590;28;20401;-78
2021/05/04 05:59:23;;;;;;;2.35;2.05;;;11.40;40.40;;;;;;5053910;28;20025;-81
2021/05/04 06:01:48;;;;;;;4.85;2.13;;;11.50;40.50;;;;;;5053368;28;20021;-80
2021/05/04 06:04:14;;;;;;;4.90;2.20;;;11.50;40.50;;;;;;5054691;28;20071;-81
2021/05/04 06:06:40;;;;;;;3.17;2.08;;;11.50;40.60;;;;;;5052416;28;20028;-80
2021/05/04 06:09:06;;;;;;;3.45;2.30;;;11.50;40.20;;;;;;5053491;28;20040;-79
2021/05/04 06:11:31;;;;;;;5.13;2.60;;;11.50;40.30;;;;;;5053505;28;20021;-78
2021/05/04 06:13:57;;;;;;;3.47;2.10;;;11.50;40.30;;;;;;5053460;28;20036;-79
2021/05/04 06:16:23;;;;;;;4.28;1.90;;;11.60;40.20;;;;;;5053479;28;20044;-80
2021/05/04 06:18:49;;;;;;;3.28;2.13;;;11.60;40.20;;;;;;5053337;28;20068;-80
2021/05/04 06:21:15;;;;;;;2.83;2.13;;;11.60;40.20;;;;;;5053257;28;20102;-81
2021/05/04 06:23:40;;;;;;;2.92;1.80;;;11.60;40.30;;;;;;5053190;28;20128;-78
2021/05/04 06:26:06;;;;;;;3.95;2.22;;;11.60;40.20;;;;;;5052832;28;20021;-79
2021/05/04 06:28:32;;;;;;;4.18;2.20;;;11.60;39.90;;;;;;5053242;28;20079;-79
2021/05/04 06:30:58;;;;;;;2.75;1.73;;;11.70;40.20;;;;;;5052851;28;20112;-78
2021/05/04 06:33:24;;;;;;;5.18;2.00;;;11.70;40.50;;;;;;5054072;28;20116;-79
2021/05/04 06:35:49;;;;;;;5.45;2.38;;;11.70;40.10;;;;;;5051938;28;20025;-81
2021/05/04 06:38:17;;;;;;;5.53;2.30;;;11.80;40.00;;;;;;5052019;28;20025;-81
2021/05/04 06:40:46;;;;;;;3.92;2.35;;;11.80;39.80;;;;;;5052975;28;20077;-76
2021/05/04 06:43:11;;;;;;;4.13;2.30;;;11.90;39.50;;;;;;5052855;28;20045;-83
2021/05/04 06:45:38;;;;;;;4.60;2.53;;;11.90;39.50;;;;;;5053020;28;20028;-82
2021/05/04 06:48:04;;;;;;;4.38;2.10;;;11.90;39.50;;;;;;5036302;28;20074;-80
2021/05/04 06:50:30;;;;;;;2.88;2.33;;;12.00;39.30;;;;;;5053021;28;20074;-79
2021/05/04 06:52:55;;;;;;;3.88;2.45;;;12.00;39.40;;;;;;5052510;28;20427;-81
2021/05/04 06:55:21;;;;;;;3.20;2.00;;;12.10;39.30;;;;;;5053306;28;20031;-80
2021/05/04 06:57:47;;;;;;;3.03;2.05;;;12.10;39.20;;;;;;5055110;28;20497;-80
2021/05/04 07:00:14;;;;;;;5.88;2.25;;;12.20;39.30;;;;;;5052834;28;20044;-81
2021/05/04 07:02:40;;;;;;;4.07;1.90;;;12.20;39.30;;;;;;5052981;28;20028;-85
2021/05/04 07:05:07;;;;;;;4.90;2.15;;;12.10;39.00;;;;;;5052693;28;20493;-82
2021/05/04 07:07:33;;;;;;;2.78;2.00;;;12.30;39.00;;;;;;5051866;28;20037;-82
2021/05/04 07:09:59;;;;;;;4.15;1.92;;;12.30;38.90;;;;;;5052464;28;20075;-84
2021/05/04 07:12:25;;;;;;;2.53;1.77;;;12.40;39.00;;;;;;5052685;28;20169;-84
2021/05/04 07:14:50;;;;;;;3.60;1.90;;;12.50;38.80;;;;;;5052205;28;20021;-85
2021/05/04 07:17:16;;;;;;;3.78;2.00;;;12.60;38.40;;;;;;5051831;28;20025;-84
2021/05/04 07:19:42;;;;;;;2.83;1.80;;;12.70;38.30;;;;;;5052580;28;20044;-85
2021/05/04 07:22:10;;;;;;;3.45;1.83;;;12.80;38.10;;;;;;5052208;28;20025;-84
2021/05/04 07:24:36;;;;;;;3.38;1.50;;;12.80;37.80;;;;;;5054233;28;20052;-83
2021/05/04 07:27:02;;;;;;;4.50;1.75;;;12.90;37.70;;;;;;5052490;28;20087;-83
2021/05/04 07:29:28;;;;;;;3.50;1.88;;;12.90;37.50;;;;;;5052670;28;20339;-85
2021/05/04 07:31:54;;;;;;;3.53;1.73;;;12.90;37.10;;;;;;5051653;28;20025;-83
2021/05/04 07:34:19;;;;;;;8.23;1.90;;;13.10;37.20;;;;;;5052218;28;20032;-78
2021/05/04 07:36:45;;;;;;;3.20;1.75;;;13.10;37.60;;;;;;5052942;28;20033;-81
2021/05/04 07:39:11;;;;;;;2.55;1.42;;;13.30;37.70;;;;;;5053405;28;20033;-83
2021/05/04 07:41:36;;;;;;;6.05;1.67;;;13.30;37.40;;;;;;5053548;28;20033;-81
2021/05/04 07:44:03;;;;;;;4.93;1.27;;;13.40;37.70;;;;;;5052803;28;20032;-85
2021/05/04 07:46:29;;;;;;;3.85;1.38;;;13.60;37.30;;;;;;5052656;28;20432;-86
2021/05/04 07:48:55;;;;;;;2.53;1.60;;;13.60;37.40;;;;;;5052399;28;20025;-79
2021/05/04 07:51:21;;;;;;;3.15;1.73;;;13.60;37.50;;;;;;5052269;28;20039;-81
2021/05/04 07:53:47;;;;;;;2.95;1.70;;;13.60;37.50;;;;;;5051498;28;20021;-76
2021/05/04 07:56:13;;;;;;;1.98;1.60;;;13.60;37.90;;;;;;5035713;28;20032;-76
2021/05/04 07:58:39;;;;;;;3.47;1.33;;;13.70;38.40;;;;;;5052849;28;20444;-76
2021/05/04 08:01:04;;;;;;;2.13;1.40;;;13.80;38.60;;;;;;5052708;28;20079;-77
2021/05/04 08:03:32;;;;;;;3.40;1.83;;;14.00;38.60;;;;;;5053805;28;20032;-76
2021/05/04 08:05:58;;;;;;;3.22;1.55;;;13.90;38.00;;;;;;5052451;28;20029;-76
2021/05/04 08:08:24;;;;;;;2.90;1.67;;;13.90;37.90;;;;;;5052420;28;20040;-76
2021/05/04 08:10:49;;;;;;;6.97;1.90;;;13.80;37.80;;;;;;5036273;28;20025;-77
2021/05/04 08:13:20;;;;;;;1.95;1.30;;;13.80;38.00;;;;;;5033855;28;20061;-75
2021/05/04 08:15:51;;;;;;;3.50;1.33;;;13.90;38.20;;;;;;5052212;28;20025;-75
2021/05/04 08:18:19;;;;;;;4.80;1.50;;;14.00;38.30;;;;;;5047574;28;20024;-75
2021/05/04 08:20:52;;;;;;;2.58;1.38;;;14.20;38.30;;;;;;5051567;28;20111;-75
2021/05/04 08:23:18;;;;;;;1.83;1.10;;;14.10;38.30;;;;;;5051551;28;20036;-75
2021/05/04 08:25:44;;;;;;;3.13;1.50;;;14.20;38.30;;;;;;5052587;28;20032;-76
2021/05/04 08:28:11;;;;;;;7.32;1.77;;;14.40;38.20;;;;;;5051056;28;20041;-76
2021/05/04 08:30:37;;;;;;;2.08;1.30;;;14.40;38.10;;;;;;5038781;28;20021;-76
2021/05/04 08:33:03;;;;;;;4.78;1.60;;;14.50;38.30;;;;;;5054985;28;20040;-76
2021/05/04 08:35:29;;;;;;;4.47;1.88;;;14.60;37.70;;;;;;5055257;28;20485;-76
2021/05/04 08:37:55;;;;;;;2.70;1.35;;;14.60;37.80;;;;;;5055311;28;20061;-76
2021/05/04 08:40:21;;;;;;;2.40;1.50;;;14.70;37.90;;;;;;5055071;28;20048;-75
2021/05/04 08:42:47;;;;;;;3.55;1.40;;;14.90;37.80;;;;;;5054856;28;20502;-75
2021/05/04 08:45:14;;;;;;;4.10;1.65;;;14.90;37.30;;;;;;5055853;28;20126;-75
2021/05/04 08:47:44;;;;;;;7.15;2.15;;;14.90;37.50;;;;;;5056360;28;20496;-74
2021/05/04 08:50:16;;;;;;;3.45;1.70;;;15.00;37.30;;;;;;5054979;28;20033;-77
2021/05/04 08:52:42;;;;;;;4.43;2.03;;;14.80;37.10;;;;;;5056248;28;20417;-76
2021/05/04 08:55:09;;;;;;;7.00;2.47;;;14.80;37.10;;;;;;5054464;28;20017;-76
2021/05/04 08:57:37;;;;;;;3.22;1.35;;;14.70;37.20;;;;;;5054310;28;20111;-77
2021/05/04 09:00:08;;;;;;;4.63;1.70;;;14.80;37.70;;;;;;5056065;28;20025;-76
2021/05/04 09:02:54;;;;;;;4.88;1.92;;;14.90;37.50;;;;;;5038342;28;20049;-76
2021/05/04 09:05:20;;;;;;;5.60;1.83;;;14.80;37.50;;;;;;5054883;28;20053;-76
2021/05/04 09:07:46;;;;;;;2.80;1.90;;;14.80;37.50;;;;;;5054245;28;20064;-75
2021/05/04 09:12:48;;;;;;;4.65;1.75;;;14.70;37.00;;;;;;5055710;28;20029;-77
2021/05/04 09:15:38;;;;;;;3.22;1.30;;;14.60;37.20;;;;;;5054554;28;20500;-73
2021/05/04 09:21:10;;;;;;;2.22;1.52;;;14.90;37.80;;;;;;5055227;28;20017;-79
2021/05/04 09:23:41;;;;;;;2.55;1.70;;;14.80;37.30;;;;;;5054503;28;20437;-78
2021/05/04 09:26:21;;;;;;;4.68;1.63;;;14.80;37.20;;;;;;5054518;28;20489;-79
2021/05/04 09:28:51;;;;;;;5.18;1.88;;;14.90;37.60;;;;;;5049715;28;20397;-79
2021/05/04 09:31:29;;;;;;;3.45;1.52;;;15.20;37.40;;;;;;5063825;28;20025;-75
2021/05/04 09:33:56;;;;;;;7.95;1.80;;;15.30;37.30;;;;;;5055500;28;20519;-78
2021/05/04 09:36:47;;;;;;;12.40;2.10;;;15.50;36.90;;;;;;5054419;28;20078;-81
2021/05/04 09:39:27;;;;;;;4.85;1.42;;;15.80;36.70;;;;;;5053782;28;20045;-80
2021/05/04 09:41:55;;;;;;;10.32;2.10;;;15.80;36.20;;;;;;5053803;28;20033;-81
2021/05/04 09:44:37;;;;;;;2.03;1.42;;;15.80;36.10;;;;;;5053601;28;20057;-80
2021/05/04 09:47:05;;;;;;;2.55;1.65;;;16.00;36.00;;;;;;5055190;28;20031;-78
2021/05/04 09:49:36;;;;;;;7.00;1.88;;;16.10;35.80;;;;;;5053606;28;20120;-81
2021/05/04 09:55:10;;;;;;;2.20;1.38;;;15.90;35.40;;;;;;5055117;28;20040;-77
2021/05/04 09:57:45;;;;;;;2.05;1.20;;;15.80;35.00;;;;;;5055134;28;20021;-78
2021/05/04 10:00:17;;;;;;;4.60;1.90;;;15.80;35.30;;;;;;5055270;28;20496;-78
2021/05/04 10:02:44;;;;;;;4.88;1.80;;;15.70;35.90;;;;;;5054711;28;20036;-80
2021/05/04 10:05:17;;;;;;;6.32;1.88;;;15.70;35.00;;;;;;5054563;28;20505;-80
2021/05/04 10:07:43;;;;;;;1.73;1.20;;;15.60;34.70;;;;;;5053298;28;20044;-80
2021/05/04 10:10:11;;;;;;;4.88;1.80;;;15.60;34.80;;;;;;5052852;28;20587;-79
2021/05/04 10:12:38;;;;;;;6.50;1.42;;;15.70;35.00;;;;;;5036663;28;20033;-80
2021/05/04 10:15:06;;;;;;;5.15;1.50;;;15.90;35.00;;;;;;5052980;28;20110;-80
2021/05/04 10:17:36;;;;;;;1.90;1.60;;;15.90;34.90;;;;;;5036081;28;20124;-80
2021/05/04 10:20:09;;;;;;;2.58;1.58;;;16.00;34.70;;;;;;5052664;28;20021;-79
2021/05/04 10:22:36;;;;;;;2.88;1.35;;;16.10;34.60;;;;;;5052862;28;20086;-79
2021/05/04 10:25:06;;;;;;;3.38;1.50;;;16.10;34.60;;;;;;5053825;28;20466;-79
2021/05/04 10:27:33;;;;;;;7.18;2.05;;;16.20;34.60;;;;;;5052421;28;20036;-80
2021/05/04 10:30:01;;;;;;;3.13;1.30;;;16.10;34.50;;;;;;5054523;28;20021;-80
2021/05/04 10:32:49;;;;;;;3.13;2.08;;;16.00;34.60;;;;;;5053138;28;20067;-80
2021/05/04 10:35:32;;;;;;;3.30;1.58;;;16.20;34.70;;;;;;5054412;28;20107;-80
2021/05/04 10:38:04;;;;;;;3.97;1.40;;;16.20;34.50;;;;;;5053121;28;20032;-80
2021/05/04 10:40:33;;;;;;;2.85;1.65;;;16.20;34.50;;;;;;5054012;28;20051;-80
2021/05/04 10:43:22;;;;;;;10.77;2.10;;;16.30;34.60;;;;;;5053014;28;20021;-80
2021/05/04 10:45:49;;;;;;;3.25;1.65;;;16.00;34.30;;;;;;5054444;28;20439;-80
2021/05/04 10:48:15;;;;;;;2.30;1.58;;;16.10;34.60;;;;;;5052286;28;20032;-78
2021/05/04 10:50:54;;;;;;;3.53;1.70;;;16.00;34.50;;;;;;5052288;28;20047;-80
2021/05/04 10:53:28;;;;;;;3.17;1.58;;;16.10;34.50;;;;;;5053559;28;20131;-80
2021/05/04 10:55:54;;;;;;;4.72;1.60;;;15.90;34.50;;;;;;5052528;28;20025;-80
2021/05/04 10:58:21;;;;;;;3.60;1.40;;;16.00;34.70;;;;;;5053566;28;20021;-77
2021/05/04 11:00:51;;;;;;;6.53;1.88;;;16.00;34.50;;;;;;5053768;28;20091;-80
2021/05/04 11:03:32;;;;;;;4.07;1.75;;;15.90;34.30;;;;;;5052324;28;20018;-80
2021/05/04 11:06:06;;;;;;;2.83;1.60;;;15.90;34.60;;;;;;5052098;28;20021;-79
2021/05/04 11:08:55;;;;;;;3.28;1.52;;;16.00;35.00;;;;;;5052247;28;20064;-80
2021/05/04 11:11:36;;;;;;;7.47;1.50;;;15.90;35.10;;;;;;5055623;28;20033;-79
2021/05/04 11:14:06;;;;;;;2.15;1.35;;;16.00;35.20;;;;;;5052283;28;20030;-78
2021/05/04 11:16:41;;;;;;;3.80;1.83;;;16.10;35.10;;;;;;5052067;28;20107;-79
2021/05/04 11:19:10;;;;;;;3.20;1.75;;;16.10;35.30;;;;;;5051980;28;20389;-81
2021/05/04 11:21:47;;;;;;;5.18;1.50;;;16.00;35.20;;;;;;5052384;28;20029;-79
2021/05/04 11:24:22;;;;;;;5.00;2.03;;;16.20;35.40;;;;;;5052033;28;20417;-79
2021/05/04 11:26:53;;;;;;;2.30;1.52;;;16.30;35.30;;;;;;5052340;28;20120;-79
2021/05/04 11:29:21;;;;;;;2.53;1.20;;;16.30;35.20;;;;;;5051801;28;20388;-79
2021/05/04 11:31:48;;;;;;;2.72;1.10;;;16.40;35.30;;;;;;5051821;28;20017;-79
2021/05/04 11:34:39;;;;;;;4.13;1.58;;;16.70;35.50;;;;;;5051800;28;20329;-81
2021/05/04 11:37:18;;;;;;;3.95;1.60;;;16.80;35.50;;;;;;5051812;28;20477;-81
2021/05/04 11:39:50;;;;;;;6.53;1.95;;;16.90;35.10;;;;;;5051843;28;20053;-80
2021/05/04 11:42:17;;;;;;;2.08;1.65;;;16.90;34.80;;;;;;5051581;28;20048;-82
2021/05/04 11:44:43;;;;;;;3.50;1.70;;;16.70;34.70;;;;;;5051481;28;20106;-82
2021/05/04 11:47:27;;;;;;;2.85;1.55;;;16.60;35.10;;;;;;5051377;28;20048;-82
2021/05/04 11:50:21;;;;;;;2.00;1.50;;;16.40;35.50;;;;;;5052812;28;20044;-77
2021/05/04 11:52:51;;;;;;;4.35;1.60;;;16.30;35.60;;;;;;5051489;28;20048;-78
2021/05/04 11:55:19;;;;;;;7.07;1.70;;;16.40;35.90;;;;;;5052672;28;20096;-80
2021/05/04 11:57:48;;;;;;;2.47;1.63;;;16.50;36.20;;;;;;5052750;28;20025;-79
2021/05/04 12:00:22;;;;;;;3.03;1.60;;;16.50;36.50;;;;;;5051177;28;20040;-77
2021/05/04 12:02:48;;;;;;;3.15;1.70;;;16.20;36.30;;;;;;5048563;28;20021;-79
2021/05/04 12:05:23;;;;;;;3.45;1.83;;;16.20;36.90;;;;;;5050829;28;20029;-79
2021/05/04 12:07:49;;;;;;;4.88;1.85;;;16.10;37.40;;;;;;5050772;28;20132;-79
2021/05/04 12:10:14;;;;;;;3.50;1.83;;;15.90;38.00;;;;;;5034169;28;20120;-79
2021/05/04 12:12:53;;;;;;;7.75;2.40;;;15.70;38.10;;;;;;5050633;28;20413;-80
2021/05/04 12:15:21;;;;;;;3.65;2.08;;;15.50;39.40;;;;;;5051147;28;20033;-78
2021/05/04 12:17:57;;;;;;;2.95;2.10;;;15.30;40.30;;;;;;5050887;28;20112;-79
2021/05/04 12:20:24;;;;;;;3.42;1.92;;;15.10;41.50;;;;;;5051366;28;20429;-79
2021/05/04 12:22:58;;;;;;;7.95;2.05;;;15.00;42.30;;;;;;5052388;28;20029;-79
2021/05/04 12:25:49;;;;;;;3.05;1.88;;;14.80;42.40;;;;;;5050466;28;20378;-81
2021/05/04 12:28:17;;;;;;;3.58;1.55;;;14.80;43.20;;;;;;5050744;28;20032;-80
2021/05/04 12:30:45;;;;;;;2.80;2.40;;;15.00;43.60;;;;;;5050824;28;20032;-80
2021/05/04 12:33:11;;;;;;;5.03;2.00;;;15.10;44.10;;;;;;5050790;28;20312;-80
2021/05/04 12:35:45;;;;;;;5.20;2.15;;;15.00;43.50;;;;;;5052277;28;20027;-80
2021/05/04 12:38:18;;;;;;;4.93;1.77;;;15.30;43.20;;;;;;5050652;28;20431;-80
2021/05/04 12:40:58;;;;;;;5.30;1.60;;;15.40;42.50;;;;;;5052042;28;20128;-80
2021/05/04 12:43:30;;;;;;;5.20;1.67;;;15.50;41.90;;;;;;5050934;28;20029;-80
2021/05/04 12:46:07;;;;;;;1.60;1.50;;;15.60;40.20;;;;;;5050859;28;20021;-81
2021/05/04 12:48:34;;;;;;;2.40;1.67;;;15.50;39.40;;;;;;5050778;28;20041;-80
2021/05/04 12:51:15;;;;;;;3.97;2.03;;;15.60;39.10;;;;;;5050592;28;20017;-80
2021/05/04 12:53:45;;;;;;;7.22;1.75;;;15.60;39.00;;;;;;5050152;28;20432;-79
2021/05/04 12:56:16;;;;;;;6.43;1.90;;;15.90;38.20;;;;;;5050474;28;20022;-78
2021/05/04 12:58:58;;;;;;;2.75;1.40;;;15.60;37.60;;;;;;5050345;28;20064;-79
2021/05/04 13:01:31;;;;;;;7.35;2.00;;;15.90;37.50;;;;;;5050483;28;20028;-80
2021/05/04 13:03:59;;;;;;;6.65;1.55;;;16.00;36.70;;;;;;5051688;28;20078;-80